sensor_id;sensor_type;location;lat;lon;timestamp;pressure;altitude;pressure_sealevel;temperature;humidity
13800;BME280;6971;50.028;9.258;2023-06-10T00:03:36;99160.09;;;14.22;100.00
13800;BME280;6971;50.028;9.258;2023-06-10T00:08:37;99153.19;;;14.19;100.00
13800;BME280;6971;50.028;9.258;2023-06-10T00:13:37;99147.19;;;14.17;100.00
13800;BME280;6971;50.028;9.258;2023-06-10T00:18:38;99152.41;;;14.06;100.00
13800;BME280;6971;50.028;9.258;2023-06-10T00:23:38;99145.09;;;14.09;100.00
13800;BME280;6971;50.028;9.258;2023-06-10T00:28:39;99153.38;;;14.05;100.00
13800;BME280;6971;50.028;9.258;2023-06-10T00:33:39;99151.09;;;14.00;100.00
13800;BME280;6971;50.028;9.258;2023-06-10T00:38:39;99161.28;;;13.93;100.00
13800;BME280;6971;50.028;9.258;2023-06-10T00:43:41;99147.28;;;13.91;100.00
13800;BME280;6971;50.028;9.258;2023-06-10T00:48:42;99151.97;;;13.88;100.00
13800;BME280;6971;50.028;9.258;2023-06-10T00:53:43;99142.66;;;13.82;100.00
13800;BME280;6971;50.028;9.258;2023-06-10T00:58:44;99154.72;;;13.86;100.00
13800;BME280;6971;50.028;9.258;2023-06-10T01:03:44;99159.81;;;13.89;100.00
13800;BME280;6971;50.028;9.258;2023-06-10T01:09:13;99148.91;;;13.81;100.00
13800;BME280;6971;50.028;9.258;2023-06-10T01:14:18;99153.91;;;13.73;100.00
13800;BME280;6971;50.028;9.258;2023-06-10T01:19:20;99153.28;;;13.69;100.00
13800;BME280;6971;50.028;9.258;2023-06-10T01:24:24;99151.28;;;13.60;100.00
13800;BME280;6971;50.028;9.258;2023-06-10T01:29:36;99156.72;;;13.58;100.00
13800;BME280;6971;50.028;9.258;2023-06-10T01:34:42;99165.47;;;13.58;100.00
13800;BME280;6971;50.028;9.258;2023-06-10T01:39:43;99154.03;;;13.45;100.00
13800;BME280;6971;50.028;9.258;2023-06-10T01:44:44;99164.72;;;13.43;100.00
13800;BME280;6971;50.028;9.258;2023-06-10T01:49:45;99167.19;;;13.34;100.00
13800;BME280;6971;50.028;9.258;2023-06-10T01:54:45;99158.59;;;13.30;100.00
13800;BME280;6971;50.028;9.258;2023-06-10T01:59:45;99168.47;;;13.28;100.00
13800;BME280;6971;50.028;9.258;2023-06-10T02:04:46;99164.00;;;13.15;100.00
13800;BME280;6971;50.028;9.258;2023-06-10T02:09:46;99158.19;;;13.10;100.00
13800;BME280;6971;50.028;9.258;2023-06-10T02:14:47;99163.78;;;13.05;100.00
13800;BME280;6971;50.028;9.258;2023-06-10T02:19:47;99165.59;;;13.05;100.00
13800;BME280;6971;50.028;9.258;2023-06-10T02:24:52;99165.59;;;12.92;100.00
13800;BME280;6971;50.028;9.258;2023-06-10T02:29:52;99166.97;;;12.85;100.00
13800;BME280;6971;50.028;9.258;2023-06-10T02:34:53;99163.34;;;12.73;100.00
13800;BME280;6971;50.028;9.258;2023-06-10T02:39:53;99164.91;;;12.75;100.00
13800;BME280;6971;50.028;9.258;2023-06-10T02:44:54;99174.66;;;12.75;100.00
13800;BME280;6971;50.028;9.258;2023-06-10T02:49:54;99172.22;;;12.72;100.00
13800;BME280;6971;50.028;9.258;2023-06-10T02:54:55;99175.28;;;12.65;100.00
13800;BME280;6971;50.028;9.258;2023-06-10T02:59:55;99171.00;;;12.50;100.00
13800;BME280;6971;50.028;9.258;2023-06-10T03:04:55;99182.00;;;12.44;100.00
13800;BME280;6971;50.028;9.258;2023-06-10T03:09:56;99172.03;;;12.34;100.00
13800;BME280;6971;50.028;9.258;2023-06-10T03:14:56;99177.69;;;12.28;100.00
13800;BME280;6971;50.028;9.258;2023-06-10T03:19:57;99178.75;;;12.25;100.00
13800;BME280;6971;50.028;9.258;2023-06-10T03:24:57;99179.06;;;12.21;100.00
13800;BME280;6971;50.028;9.258;2023-06-10T03:29:57;99193.97;;;12.22;100.00
13800;BME280;6971;50.028;9.258;2023-06-10T03:34:58;99188.88;;;12.19;100.00
13800;BME280;6971;50.028;9.258;2023-06-10T03:39:58;99190.09;;;12.13;100.00
13800;BME280;6971;50.028;9.258;2023-06-10T03:44:59;99200.22;;;12.06;100.00
13800;BME280;6971;50.028;9.258;2023-06-10T03:49:59;99190.88;;;12.00;100.00
13800;BME280;6971;50.028;9.258;2023-06-10T03:55:00;99179.47;;;12.00;100.00
13800;BME280;6971;50.028;9.258;2023-06-10T04:00:00;99189.38;;;11.96;100.00
13800;BME280;6971;50.028;9.258;2023-06-10T04:05:03;99189.56;;;11.93;100.00
13800;BME280;6971;50.028;9.258;2023-06-10T04:10:05;99194.25;;;12.02;100.00
13800;BME280;6971;50.028;9.258;2023-06-10T04:15:06;99195.13;;;12.03;100.00
13800;BME280;6971;50.028;9.258;2023-06-10T04:20:08;99193.53;;;12.00;100.00
13800;BME280;6971;50.028;9.258;2023-06-10T04:25:09;99199.63;;;12.01;100.00
13800;BME280;6971;50.028;9.258;2023-06-10T04:30:10;99197.22;;;11.98;100.00
13800;BME280;6971;50.028;9.258;2023-06-10T04:35:11;99208.59;;;12.13;100.00
13800;BME280;6971;50.028;9.258;2023-06-10T04:40:14;99208.91;;;12.08;100.00
13800;BME280;6971;50.028;9.258;2023-06-10T04:45:16;99210.88;;;12.19;100.00
13800;BME280;6971;50.028;9.258;2023-06-10T04:50:16;99208.56;;;12.27;100.00
13800;BME280;6971;50.028;9.258;2023-06-10T04:55:16;99214.44;;;12.46;100.00
13800;BME280;6971;50.028;9.258;2023-06-10T05:00:17;99208.88;;;12.50;100.00
13800;BME280;6971;50.028;9.258;2023-06-10T05:05:18;99200.09;;;12.50;100.00
13800;BME280;6971;50.028;9.258;2023-06-10T05:10:18;99204.03;;;12.57;100.00
13800;BME280;6971;50.028;9.258;2023-06-10T05:15:18;99201.72;;;12.65;100.00
13800;BME280;6971;50.028;9.258;2023-06-10T05:20:19;99199.28;;;12.75;100.00
13800;BME280;6971;50.028;9.258;2023-06-10T05:25:21;99206.94;;;12.93;100.00
13800;BME280;6971;50.028;9.258;2023-06-10T05:30:21;99199.25;;;13.03;100.00
13800;BME280;6971;50.028;9.258;2023-06-10T05:35:22;99201.47;;;13.09;100.00
13800;BME280;6971;50.028;9.258;2023-06-10T05:40:22;99203.50;;;13.18;100.00
13800;BME280;6971;50.028;9.258;2023-06-10T05:45:23;99202.97;;;13.26;100.00
13800;BME280;6971;50.028;9.258;2023-06-10T05:50:24;99208.13;;;13.41;100.00
13800;BME280;6971;50.028;9.258;2023-06-10T05:55:27;99207.09;;;13.69;100.00
13800;BME280;6971;50.028;9.258;2023-06-10T06:00:27;99209.38;;;13.87;100.00
13800;BME280;6971;50.028;9.258;2023-06-10T06:05:31;99201.41;;;14.00;100.00
13800;BME280;6971;50.028;9.258;2023-06-10T06:10:35;99208.06;;;14.30;100.00
13800;BME280;6971;50.028;9.258;2023-06-10T06:15:35;99209.22;;;14.39;100.00
13800;BME280;6971;50.028;9.258;2023-06-10T06:20:35;99207.41;;;14.64;100.00
13800;BME280;6971;50.028;9.258;2023-06-10T06:25:36;99214.59;;;14.86;100.00
13800;BME280;6971;50.028;9.258;2023-06-10T06:30:39;99204.69;;;15.13;100.00
13800;BME280;6971;50.028;9.258;2023-06-10T06:35:39;99209.91;;;15.37;100.00
13800;BME280;6971;50.028;9.258;2023-06-10T06:40:40;99204.22;;;15.65;100.00
13800;BME280;6971;50.028;9.258;2023-06-10T06:45:40;99210.13;;;16.14;100.00
13800;BME280;6971;50.028;9.258;2023-06-10T06:50:41;99216.44;;;16.46;100.00
13800;BME280;6971;50.028;9.258;2023-06-10T06:55:42;99213.69;;;16.90;100.00
13800;BME280;6971;50.028;9.258;2023-06-10T07:00:42;99212.63;;;17.35;96.54
13800;BME280;6971;50.028;9.258;2023-06-10T07:05:42;99223.53;;;17.64;94.89
13800;BME280;6971;50.028;9.258;2023-06-10T07:10:43;99225.78;;;17.99;88.52
13800;BME280;6971;50.028;9.258;2023-06-10T07:15:43;99223.91;;;18.31;85.33
13800;BME280;6971;50.028;9.258;2023-06-10T07:20:44;99230.09;;;18.91;80.67
13800;BME280;6971;50.028;9.258;2023-06-10T07:25:44;99237.91;;;19.80;72.31
13800;BME280;6971;50.028;9.258;2023-06-10T07:30:45;99250.00;;;19.84;74.71
13800;BME280;6971;50.028;9.258;2023-06-10T07:35:45;99249.25;;;20.02;73.30
13800;BME280;6971;50.028;9.258;2023-06-10T07:40:45;99250.88;;;20.59;69.28
13800;BME280;6971;50.028;9.258;2023-06-10T07:45:46;99245.13;;;20.35;71.61
13800;BME280;6971;50.028;9.258;2023-06-10T07:50:46;99251.03;;;21.38;65.08
13800;BME280;6971;50.028;9.258;2023-06-10T07:55:47;99265.03;;;23.86;55.85
13800;BME280;6971;50.028;9.258;2023-06-10T08:00:47;99261.69;;;24.56;53.90
13800;BME280;6971;50.028;9.258;2023-06-10T08:05:48;99268.44;;;25.76;47.94
13800;BME280;6971;50.028;9.258;2023-06-10T08:10:48;99281.56;;;26.09;45.55
13800;BME280;6971;50.028;9.258;2023-06-10T08:15:49;99281.06;;;26.20;45.78
13800;BME280;6971;50.028;9.258;2023-06-10T08:20:50;99282.63;;;26.67;42.89
13800;BME280;6971;50.028;9.258;2023-06-10T08:25:51;99286.31;;;26.81;42.63
13800;BME280;6971;50.028;9.258;2023-06-10T08:30:51;99271.00;;;27.10;41.31
13800;BME280;6971;50.028;9.258;2023-06-10T08:35:52;99271.47;;;26.92;41.73
13800;BME280;6971;50.028;9.258;2023-06-10T08:40:56;99270.63;;;27.42;40.30
13800;BME280;6971;50.028;9.258;2023-06-10T08:46:00;99270.28;;;27.80;39.97
13800;BME280;6971;50.028;9.258;2023-06-10T08:51:03;99273.91;;;28.08;40.04
13800;BME280;6971;50.028;9.258;2023-06-10T08:56:05;99268.34;;;27.74;39.94
13800;BME280;6971;50.028;9.258;2023-06-10T09:01:07;99272.47;;;28.74;38.64
13800;BME280;6971;50.028;9.258;2023-06-10T09:06:09;99267.69;;;28.76;38.48
13800;BME280;6971;50.028;9.258;2023-06-10T09:11:10;99261.22;;;29.58;37.79
13800;BME280;6971;50.028;9.258;2023-06-10T09:16:10;99257.25;;;28.80;38.59
13800;BME280;6971;50.028;9.258;2023-06-10T09:21:11;99258.13;;;30.21;36.44
13800;BME280;6971;50.028;9.258;2023-06-10T09:26:12;99254.75;;;29.46;39.46
13800;BME280;6971;50.028;9.258;2023-06-10T09:31:12;99248.34;;;29.27;38.48
13800;BME280;6971;50.028;9.258;2023-06-10T09:36:23;99256.28;;;30.08;34.81
13800;BME280;6971;50.028;9.258;2023-06-10T09:41:35;99247.25;;;29.55;35.46
13800;BME280;6971;50.028;9.258;2023-06-10T09:46:35;99251.19;;;30.25;35.17
13800;BME280;6971;50.028;9.258;2023-06-10T09:51:35;99250.91;;;30.40;33.49
13800;BME280;6971;50.028;9.258;2023-06-10T09:56:36;99250.16;;;30.26;34.09
13800;BME280;6971;50.028;9.258;2023-06-10T10:01:37;99248.94;;;30.54;33.82
13800;BME280;6971;50.028;9.258;2023-06-10T10:06:38;99247.47;;;30.91;33.59
13800;BME280;6971;50.028;9.258;2023-06-10T10:11:39;99245.63;;;30.06;34.19
13800;BME280;6971;50.028;9.258;2023-06-10T10:16:41;99238.47;;;30.58;33.55
13800;BME280;6971;50.028;9.258;2023-06-10T10:21:52;99241.38;;;30.24;33.36
13800;BME280;6971;50.028;9.258;2023-06-10T10:26:54;99230.44;;;31.02;31.93
13800;BME280;6971;50.028;9.258;2023-06-10T10:31:59;99244.28;;;31.19;33.58
13800;BME280;6971;50.028;9.258;2023-06-10T10:37:00;99239.97;;;31.37;31.43
13800;BME280;6971;50.028;9.258;2023-06-10T10:42:02;99226.31;;;30.93;32.12
13800;BME280;6971;50.028;9.258;2023-06-10T10:47:07;99228.78;;;29.91;33.69
13800;BME280;6971;50.028;9.258;2023-06-10T10:52:11;99223.03;;;30.13;33.62
13800;BME280;6971;50.028;9.258;2023-06-10T11:02:42;99224.66;;;30.27;32.15
13800;BME280;6971;50.028;9.258;2023-06-10T11:07:54;99214.88;;;30.13;30.25
13800;BME280;6971;50.028;9.258;2023-06-10T11:12:57;99218.22;;;30.54;31.23
13800;BME280;6971;50.028;9.258;2023-06-10T11:18:52;99216.75;;;30.83;31.23
13800;BME280;6971;50.028;9.258;2023-06-10T11:23:40;99212.88;;;30.98;30.20
13800;BME280;6971;50.028;9.258;2023-06-10T11:33:44;99222.16;;;31.16;30.25
13800;BME280;6971;50.028;9.258;2023-06-10T11:38:45;99204.00;;;30.84;30.52
13800;BME280;6971;50.028;9.258;2023-06-10T11:43:46;99212.59;;;31.88;30.12
13800;BME280;6971;50.028;9.258;2023-06-10T11:48:51;99205.84;;;31.72;30.56
13800;BME280;6971;50.028;9.258;2023-06-10T11:53:54;99199.63;;;31.27;30.74
13800;BME280;6971;50.028;9.258;2023-06-10T11:59:02;99204.19;;;31.71;30.05
13800;BME280;6971;50.028;9.258;2023-06-10T12:04:09;99201.41;;;32.27;29.80
13800;BME280;6971;50.028;9.258;2023-06-10T12:09:29;99199.66;;;31.83;30.85
13800;BME280;6971;50.028;9.258;2023-06-10T12:14:52;99189.03;;;31.44;30.55
13800;BME280;6971;50.028;9.258;2023-06-10T12:20:04;99183.03;;;31.54;31.24
13800;BME280;6971;50.028;9.258;2023-06-10T12:25:06;99177.81;;;31.34;30.83
13800;BME280;6971;50.028;9.258;2023-06-10T12:30:09;99173.00;;;31.85;29.99
13800;BME280;6971;50.028;9.258;2023-06-10T12:35:11;99166.47;;;31.56;30.16
13800;BME280;6971;50.028;9.258;2023-06-10T12:40:12;99166.94;;;30.90;31.66
13800;BME280;6971;50.028;9.258;2023-06-10T12:45:13;99171.84;;;31.44;30.57
13800;BME280;6971;50.028;9.258;2023-06-10T12:50:13;99170.50;;;31.34;30.56
13800;BME280;6971;50.028;9.258;2023-06-10T12:55:14;99160.63;;;30.64;31.73
13800;BME280;6971;50.028;9.258;2023-06-10T13:00:15;99156.00;;;31.15;32.07
13800;BME280;6971;50.028;9.258;2023-06-10T13:05:16;99144.59;;;30.55;32.62
13800;BME280;6971;50.028;9.258;2023-06-10T13:10:18;99157.72;;;30.91;33.87
13800;BME280;6971;50.028;9.258;2023-06-10T13:15:18;99155.44;;;30.87;32.13
13800;BME280;6971;50.028;9.258;2023-06-10T13:20:22;99153.94;;;30.92;31.30
13800;BME280;6971;50.028;9.258;2023-06-10T13:25:22;99156.56;;;31.43;31.23
13800;BME280;6971;50.028;9.258;2023-06-10T13:30:24;99149.09;;;30.94;31.38
13800;BME280;6971;50.028;9.258;2023-06-10T13:35:24;99143.25;;;30.90;30.72
13800;BME280;6971;50.028;9.258;2023-06-10T13:40:25;99135.44;;;30.49;31.80
13800;BME280;6971;50.028;9.258;2023-06-10T13:45:25;99130.88;;;30.18;31.98
13800;BME280;6971;50.028;9.258;2023-06-10T13:50:26;99126.38;;;30.30;31.69
13800;BME280;6971;50.028;9.258;2023-06-10T13:55:26;99117.53;;;30.42;31.29
13800;BME280;6971;50.028;9.258;2023-06-10T14:00:28;99110.69;;;30.32;30.95
13800;BME280;6971;50.028;9.258;2023-06-10T14:05:28;99117.97;;;30.39;31.03
13800;BME280;6971;50.028;9.258;2023-06-10T14:10:29;99112.91;;;29.78;32.81
13800;BME280;6971;50.028;9.258;2023-06-10T14:15:29;99111.03;;;29.19;35.13
13800;BME280;6971;50.028;9.258;2023-06-10T14:20:30;99109.84;;;28.40;36.46
13800;BME280;6971;50.028;9.258;2023-06-10T14:25:31;99108.50;;;29.31;35.20
13800;BME280;6971;50.028;9.258;2023-06-10T14:30:32;99105.88;;;29.63;33.50
13800;BME280;6971;50.028;9.258;2023-06-10T14:35:32;99121.50;;;30.07;33.80
13800;BME280;6971;50.028;9.258;2023-06-10T14:40:32;99110.06;;;29.59;32.62
13800;BME280;6971;50.028;9.258;2023-06-10T14:45:33;99101.22;;;29.70;32.05
13800;BME280;6971;50.028;9.258;2023-06-10T14:50:36;99093.38;;;29.62;31.57
13800;BME280;6971;50.028;9.258;2023-06-10T14:55:37;99101.56;;;29.88;31.87
13800;BME280;6971;50.028;9.258;2023-06-10T15:00:37;99088.81;;;29.95;31.10
13800;BME280;6971;50.028;9.258;2023-06-10T15:05:37;99090.00;;;29.99;30.42
13800;BME280;6971;50.028;9.258;2023-06-10T15:10:38;99086.84;;;30.02;31.34
13800;BME280;6971;50.028;9.258;2023-06-10T15:15:38;99083.81;;;30.24;31.90
13800;BME280;6971;50.028;9.258;2023-06-10T15:20:38;99077.22;;;30.06;31.76
13800;BME280;6971;50.028;9.258;2023-06-10T15:25:39;99090.97;;;30.44;32.05
13800;BME280;6971;50.028;9.258;2023-06-10T15:30:41;99074.81;;;29.91;32.50
13800;BME280;6971;50.028;9.258;2023-06-10T15:35:41;99072.75;;;29.41;36.75
13800;BME280;6971;50.028;9.258;2023-06-10T15:40:41;99088.28;;;29.27;34.75
13800;BME280;6971;50.028;9.258;2023-06-10T15:45:42;99087.69;;;29.04;35.22
13800;BME280;6971;50.028;9.258;2023-06-10T15:50:44;99086.69;;;28.24;36.61
13800;BME280;6971;50.028;9.258;2023-06-10T15:55:45;99091.94;;;27.57;38.65
13800;BME280;6971;50.028;9.258;2023-06-10T16:00:45;99086.63;;;27.77;38.84
13800;BME280;6971;50.028;9.258;2023-06-10T16:05:46;99094.94;;;27.75;39.47
13800;BME280;6971;50.028;9.258;2023-06-10T16:10:46;99097.00;;;27.24;39.56
13800;BME280;6971;50.028;9.258;2023-06-10T16:15:47;99094.56;;;26.94;40.41
13800;BME280;6971;50.028;9.258;2023-06-10T16:20:47;99099.03;;;26.87;41.12
13800;BME280;6971;50.028;9.258;2023-06-10T16:25:48;99096.94;;;27.11;41.17
13800;BME280;6971;50.028;9.258;2023-06-10T16:30:48;99106.28;;;27.57;41.05
13800;BME280;6971;50.028;9.258;2023-06-10T16:35:51;99106.78;;;27.68;40.70
13800;BME280;6971;50.028;9.258;2023-06-10T16:40:52;99103.31;;;27.45;41.04
13800;BME280;6971;50.028;9.258;2023-06-10T16:45:52;99107.03;;;27.37;41.52
13800;BME280;6971;50.028;9.258;2023-06-10T16:50:57;99102.38;;;27.18;42.08
13800;BME280;6971;50.028;9.258;2023-06-10T16:55:57;99117.75;;;27.17;41.94
13800;BME280;6971;50.028;9.258;2023-06-10T17:01:03;99118.88;;;27.30;42.47
13800;BME280;6971;50.028;9.258;2023-06-10T17:06:04;99116.72;;;27.18;43.32
13800;BME280;6971;50.028;9.258;2023-06-10T17:11:04;99119.25;;;27.27;43.24
13800;BME280;6971;50.028;9.258;2023-06-10T17:16:05;99121.59;;;27.36;43.46
13800;BME280;6971;50.028;9.258;2023-06-10T17:21:05;99127.94;;;26.87;44.58
13800;BME280;6971;50.028;9.258;2023-06-10T17:26:06;99128.69;;;27.02;43.45
13800;BME280;6971;50.028;9.258;2023-06-10T17:31:06;99138.94;;;27.07;43.84
13800;BME280;6971;50.028;9.258;2023-06-10T17:36:06;99135.84;;;26.88;44.25
13800;BME280;6971;50.028;9.258;2023-06-10T17:41:07;99139.47;;;26.74;44.88
13800;BME280;6971;50.028;9.258;2023-06-10T17:46:08;99134.06;;;26.74;44.77
13800;BME280;6971;50.028;9.258;2023-06-10T17:51:09;99142.94;;;26.39;44.86
13800;BME280;6971;50.028;9.258;2023-06-10T17:56:10;99145.00;;;26.22;46.94
13800;BME280;6971;50.028;9.258;2023-06-10T18:01:10;99154.94;;;25.62;49.38
13800;BME280;6971;50.028;9.258;2023-06-10T18:06:11;99156.06;;;25.38;49.90
13800;BME280;6971;50.028;9.258;2023-06-10T18:11:12;99161.81;;;25.20;51.63
13800;BME280;6971;50.028;9.258;2023-06-10T18:16:12;99160.59;;;24.92;53.37
13800;BME280;6971;50.028;9.258;2023-06-10T18:21:14;99165.63;;;24.72;53.46
13800;BME280;6971;50.028;9.258;2023-06-10T18:26:14;99171.63;;;24.59;53.52
13800;BME280;6971;50.028;9.258;2023-06-10T18:31:15;99172.34;;;24.29;55.55
13800;BME280;6971;50.028;9.258;2023-06-10T18:36:15;99171.09;;;24.08;56.54
13800;BME280;6971;50.028;9.258;2023-06-10T18:41:15;99187.75;;;23.72;57.96
13800;BME280;6971;50.028;9.258;2023-06-10T18:46:16;99193.88;;;23.57;56.57
13800;BME280;6971;50.028;9.258;2023-06-10T18:51:17;99198.28;;;23.42;58.42
13800;BME280;6971;50.028;9.258;2023-06-10T18:56:17;99210.22;;;23.23;59.59
13800;BME280;6971;50.028;9.258;2023-06-10T19:01:18;99210.09;;;22.99;61.76
13800;BME280;6971;50.028;9.258;2023-06-10T19:06:18;99206.88;;;22.54;63.99
13800;BME280;6971;50.028;9.258;2023-06-10T19:11:18;99208.34;;;22.40;65.02
13800;BME280;6971;50.028;9.258;2023-06-10T19:16:19;99204.66;;;22.33;65.90
13800;BME280;6971;50.028;9.258;2023-06-10T19:21:19;99202.25;;;22.04;66.72
13800;BME280;6971;50.028;9.258;2023-06-10T19:26:20;99210.88;;;21.82;67.77
13800;BME280;6971;50.028;9.258;2023-06-10T19:31:21;99215.59;;;21.80;68.61
13800;BME280;6971;50.028;9.258;2023-06-10T19:36:21;99219.47;;;21.59;69.03
13800;BME280;6971;50.028;9.258;2023-06-10T19:41:21;99225.13;;;21.56;69.65
13800;BME280;6971;50.028;9.258;2023-06-10T19:46:23;99233.09;;;21.39;69.75
13800;BME280;6971;50.028;9.258;2023-06-10T19:51:23;99234.00;;;21.21;70.66
13800;BME280;6971;50.028;9.258;2023-06-10T19:56:24;99232.69;;;21.25;69.25
13800;BME280;6971;50.028;9.258;2023-06-10T20:01:25;99239.66;;;21.18;70.40
13800;BME280;6971;50.028;9.258;2023-06-10T20:06:25;99242.97;;;21.12;68.61
13800;BME280;6971;50.028;9.258;2023-06-10T20:11:26;99249.44;;;21.01;68.59
13800;BME280;6971;50.028;9.258;2023-06-10T20:16:26;99253.63;;;21.04;67.12
13800;BME280;6971;50.028;9.258;2023-06-10T20:21:26;99253.38;;;21.15;66.06
13800;BME280;6971;50.028;9.258;2023-06-10T20:26:29;99258.34;;;21.10;66.31
13800;BME280;6971;50.028;9.258;2023-06-10T20:31:29;99261.09;;;21.18;65.06
13800;BME280;6971;50.028;9.258;2023-06-10T20:36:30;99267.91;;;21.31;64.15
13800;BME280;6971;50.028;9.258;2023-06-10T20:41:30;99269.81;;;21.20;65.06
13800;BME280;6971;50.028;9.258;2023-06-10T20:46:30;99282.28;;;21.30;64.34
13800;BME280;6971;50.028;9.258;2023-06-10T20:51:31;99281.16;;;21.14;64.52
13800;BME280;6971;50.028;9.258;2023-06-10T20:56:32;99285.50;;;21.15;64.35
13800;BME280;6971;50.028;9.258;2023-06-10T21:01:33;99291.94;;;21.22;64.35
13800;BME280;6971;50.028;9.258;2023-06-10T21:06:33;99285.88;;;21.20;64.08
13800;BME280;6971;50.028;9.258;2023-06-10T21:11:33;99293.31;;;21.26;64.40
13800;BME280;6971;50.028;9.258;2023-06-10T21:16:34;99288.75;;;21.19;65.09
13800;BME280;6971;50.028;9.258;2023-06-10T21:21:35;99286.50;;;21.14;64.62
13800;BME280;6971;50.028;9.258;2023-06-10T21:26:36;99294.09;;;21.00;65.29
13800;BME280;6971;50.028;9.258;2023-06-10T21:31:36;99299.09;;;20.95;65.50
13800;BME280;6971;50.028;9.258;2023-06-10T21:36:37;99291.53;;;20.81;66.43
13800;BME280;6971;50.028;9.258;2023-06-10T21:41:37;99296.59;;;20.84;65.89
13800;BME280;6971;50.028;9.258;2023-06-10T21:46:37;99296.13;;;20.70;66.70
13800;BME280;6971;50.028;9.258;2023-06-10T21:51:38;99300.25;;;20.65;66.47
13800;BME280;6971;50.028;9.258;2023-06-10T21:56:38;99310.50;;;20.51;67.52
13800;BME280;6971;50.028;9.258;2023-06-10T22:01:39;99309.56;;;20.42;67.46
13800;BME280;6971;50.028;9.258;2023-06-10T22:06:41;99311.88;;;20.37;67.79
13800;BME280;6971;50.028;9.258;2023-06-10T22:11:41;99324.00;;;20.31;68.14
13800;BME280;6971;50.028;9.258;2023-06-10T22:16:43;99323.25;;;20.11;68.86
13800;BME280;6971;50.028;9.258;2023-06-10T22:21:43;99341.41;;;20.07;69.14
13800;BME280;6971;50.028;9.258;2023-06-10T22:26:45;99342.84;;;20.02;69.43
13800;BME280;6971;50.028;9.258;2023-06-10T22:31:45;99349.75;;;19.85;70.09
13800;BME280;6971;50.028;9.258;2023-06-10T22:36:46;99346.66;;;19.89;69.71
13800;BME280;6971;50.028;9.258;2023-06-10T22:41:46;99350.91;;;19.82;69.92
13800;BME280;6971;50.028;9.258;2023-06-10T22:46:46;99348.94;;;19.84;70.22
13800;BME280;6971;50.028;9.258;2023-06-10T22:51:47;99345.88;;;19.69;70.36
13800;BME280;6971;50.028;9.258;2023-06-10T22:56:47;99347.28;;;19.73;69.91
13800;BME280;6971;50.028;9.258;2023-06-10T23:01:48;99352.84;;;20.00;67.62
13800;BME280;6971;50.028;9.258;2023-06-10T23:06:48;99358.38;;;19.68;70.43
13800;BME280;6971;50.028;9.258;2023-06-10T23:11:48;99351.22;;;19.59;70.15
13800;BME280;6971;50.028;9.258;2023-06-10T23:16:50;99351.78;;;19.63;69.97
13800;BME280;6971;50.028;9.258;2023-06-10T23:21:51;99357.69;;;19.66;70.13
13800;BME280;6971;50.028;9.258;2023-06-10T23:26:55;99361.91;;;19.79;69.10
13800;BME280;6971;50.028;9.258;2023-06-10T23:31:56;99364.97;;;19.84;69.15
13800;BME280;6971;50.028;9.258;2023-06-10T23:36:56;99372.41;;;20.00;69.00
13800;BME280;6971;50.028;9.258;2023-06-10T23:41:56;99381.25;;;20.01;67.74
13800;BME280;6971;50.028;9.258;2023-06-10T23:46:57;99386.50;;;19.92;68.68
13800;BME280;6971;50.028;9.258;2023-06-10T23:51:58;99377.63;;;19.82;69.16
13800;BME280;6971;50.028;9.258;2023-06-10T23:56:59;99385.50;;;19.83;69.79
